createdAt,value
2018-11-14T00:00:09.054Z,22.70
2018-11-14T00:02:37.519Z,22.20
2018-11-14T00:05:06.443Z,17.37
2018-11-14T00:07:34.699Z,17.53
2018-11-14T00:10:03.135Z,24.13
2018-11-14T00:12:31.031Z,23.23
2018-11-14T00:14:58.813Z,20.30
2018-11-14T00:17:26.552Z,18.10
2018-11-14T00:19:54.638Z,16.23
2018-11-14T00:22:22.123Z,15.57
2018-11-14T00:24:49.919Z,13.90
2018-11-14T00:27:17.712Z,13.90
2018-11-14T00:29:45.507Z,15.47
2018-11-14T00:32:13.223Z,14.60
2018-11-14T00:34:41.010Z,13.57
2018-11-14T00:37:09.534Z,13.93
2018-11-14T00:39:37.502Z,14.53
2018-11-14T00:42:05.935Z,13.93
2018-11-14T00:44:34.132Z,13.87
2018-11-14T00:47:02.374Z,15.07
2018-11-14T00:49:30.713Z,16.87
2018-11-14T00:51:58.758Z,15.00
2018-11-14T00:54:26.994Z,15.93
2018-11-14T00:56:55.075Z,13.20
2018-11-14T00:59:23.208Z,12.80
2018-11-14T01:01:51.445Z,13.23
2018-11-14T01:04:20.575Z,12.80
2018-11-14T01:06:48.871Z,12.57
2018-11-14T01:09:17.276Z,12.03
2018-11-14T01:11:45.656Z,13.13
2018-11-14T01:14:13.860Z,14.17
2018-11-14T01:16:42.111Z,14.77
2018-11-14T01:19:10.575Z,15.93
2018-11-14T01:21:38.819Z,16.77
2018-11-14T01:24:07.476Z,17.10
2018-11-14T01:26:35.619Z,21.70
2018-11-14T01:29:03.722Z,21.83
2018-11-14T01:31:32.194Z,25.00
2018-11-14T01:34:00.525Z,26.70
2018-11-14T01:36:28.948Z,26.10
2018-11-14T01:38:56.948Z,23.57
2018-11-14T01:41:24.900Z,23.10
2018-11-14T01:43:53.237Z,21.20
2018-11-14T01:46:21.373Z,22.93
2018-11-14T01:48:49.325Z,26.07
2018-11-14T01:51:17.488Z,26.27
2018-11-14T01:53:45.790Z,27.80
2018-11-14T01:56:13.667Z,26.10
2018-11-14T01:58:41.571Z,27.20
2018-11-14T02:01:10.036Z,26.67
2018-11-14T02:03:38.359Z,28.27
2018-11-14T02:06:06.716Z,28.37
2018-11-14T02:08:34.807Z,30.10
2018-11-14T02:11:02.955Z,28.90
2018-11-14T02:13:31.254Z,26.90
2018-11-14T02:15:59.451Z,30.10
2018-11-14T02:18:27.578Z,29.23
2018-11-14T02:20:55.818Z,33.97
2018-11-14T02:23:23.914Z,33.03
2018-11-14T02:25:52.352Z,33.10
2018-11-14T02:28:20.375Z,32.57
2018-11-14T02:30:48.560Z,35.07
2018-11-14T02:33:16.782Z,37.23
2018-11-14T02:35:45.143Z,35.70
2018-11-14T02:38:13.548Z,39.27
2018-11-14T02:40:41.620Z,34.80
2018-11-14T02:43:10.149Z,34.63
2018-11-14T02:45:38.338Z,39.83
2018-11-14T02:48:06.544Z,38.03
2018-11-14T02:50:34.975Z,41.63
2018-11-14T02:53:03.292Z,39.20
2018-11-14T02:55:31.495Z,37.10
2018-11-14T02:57:59.766Z,38.27
2018-11-14T03:00:28.068Z,39.47
2018-11-14T03:02:56.267Z,41.77
2018-11-14T03:05:24.623Z,39.80
2018-11-14T03:07:52.855Z,39.57
2018-11-14T03:10:21.733Z,41.37
2018-11-14T03:12:50.087Z,41.50
2018-11-14T03:15:21.352Z,43.33
2018-11-14T03:17:49.671Z,43.33
2018-11-14T03:20:19.182Z,41.80
2018-11-14T03:22:47.243Z,42.23
2018-11-14T03:25:15.720Z,41.37
2018-11-14T03:27:43.779Z,41.67
2018-11-14T03:30:14.465Z,39.83
2018-11-14T03:32:43.083Z,35.17
2018-11-14T03:35:12.144Z,34.17
2018-11-14T03:37:40.160Z,32.67
2018-11-14T03:40:09.941Z,33.93
2018-11-14T03:42:38.207Z,30.83
2018-11-14T03:45:07.743Z,30.83
2018-11-14T03:47:36.004Z,31.33
2018-11-14T03:50:04.623Z,29.87
2018-11-14T03:52:32.871Z,29.77
2018-11-14T03:55:01.229Z,30.00
2018-11-14T03:57:29.494Z,29.90
2018-11-14T03:59:57.748Z,30.53
2018-11-14T04:02:25.979Z,32.23
2018-11-14T04:04:54.088Z,34.63
2018-11-14T04:07:22.322Z,30.77
2018-11-14T04:09:50.399Z,25.77
2018-11-14T04:12:18.478Z,24.90
2018-11-14T04:14:46.967Z,29.47
2018-11-14T04:17:14.727Z,29.23
2018-11-14T04:19:42.494Z,27.47
2018-11-14T04:22:10.261Z,33.30
2018-11-14T04:24:38.492Z,26.63
2018-11-14T04:27:06.676Z,31.47
2018-11-14T04:29:34.803Z,31.50
2018-11-14T04:32:03.326Z,28.77
2018-11-14T04:34:31.485Z,29.03
2018-11-14T04:36:59.632Z,30.87
2018-11-14T04:39:27.907Z,31.00
2018-11-14T04:41:56.167Z,35.87
2018-11-14T04:44:24.688Z,32.73
2018-11-14T04:46:53.021Z,34.07
2018-11-14T04:49:21.436Z,33.07
2018-11-14T04:51:49.662Z,34.50
2018-11-14T04:54:18.045Z,32.97
2018-11-14T04:56:46.261Z,35.23
2018-11-14T04:59:14.693Z,33.33
2018-11-14T05:01:42.471Z,32.37
2018-11-14T05:04:10.572Z,33.00
2018-11-14T05:06:38.902Z,30.37
2018-11-14T05:09:08.678Z,28.77
2018-11-14T05:11:36.736Z,28.47
2018-11-14T05:14:05.411Z,29.10
2018-11-14T05:16:33.767Z,31.43
2018-11-14T05:19:02.056Z,30.03
2018-11-14T05:21:30.315Z,29.27
2018-11-14T05:23:58.875Z,31.90
2018-11-14T05:26:26.982Z,31.17
2018-11-14T05:28:55.283Z,32.07
2018-11-14T05:31:23.635Z,30.57
2018-11-14T05:33:51.815Z,33.27
2018-11-14T05:36:20.176Z,36.37
2018-11-14T05:38:48.639Z,35.10
2018-11-14T05:41:17.014Z,35.27
2018-11-14T05:43:45.348Z,31.97
2018-11-14T05:46:13.860Z,35.00
2018-11-14T05:48:42.071Z,37.13
2018-11-14T05:51:10.571Z,36.90
2018-11-14T05:53:38.814Z,38.00
2018-11-14T05:56:07.508Z,37.63
2018-11-14T05:58:35.807Z,38.07
2018-11-14T06:01:04.104Z,37.23
2018-11-14T06:03:32.332Z,38.20
2018-11-14T06:06:00.825Z,39.77
2018-11-14T06:08:29.143Z,38.13
2018-11-14T06:10:57.574Z,39.50
2018-11-14T06:13:25.888Z,39.40
2018-11-14T06:15:54.187Z,87.10
2018-11-14T06:18:22.375Z,49.00
2018-11-14T06:20:50.459Z,46.93
2018-11-14T06:23:18.646Z,63.03
2018-11-14T06:25:46.994Z,56.37
2018-11-14T06:28:15.078Z,43.57
2018-11-14T06:30:43.584Z,43.57
2018-11-14T06:33:12.009Z,43.63
2018-11-14T06:35:40.339Z,43.23
2018-11-14T06:38:08.607Z,45.03
2018-11-14T06:40:37.101Z,44.63
2018-11-14T06:43:05.375Z,45.33
2018-11-14T06:45:34.312Z,38.53
2018-11-14T06:48:03.016Z,35.63
2018-11-14T06:50:31.232Z,37.90
2018-11-14T06:53:00.995Z,36.80
2018-11-14T06:55:29.443Z,34.90
2018-11-14T06:57:57.681Z,34.47
2018-11-14T07:00:29.150Z,34.87
2018-11-14T07:02:58.017Z,39.47
2018-11-14T07:05:26.476Z,37.60
2018-11-14T07:07:54.945Z,36.13
2018-11-14T07:10:27.543Z,35.97
2018-11-14T07:13:12.923Z,36.70
2018-11-14T07:15:42.143Z,38.67
2018-11-14T07:18:11.196Z,39.03
2018-11-14T07:20:40.966Z,40.17
2018-11-14T07:23:09.351Z,38.07
2018-11-14T07:25:37.602Z,39.80
2018-11-14T07:28:06.143Z,36.40
2018-11-14T07:30:34.683Z,37.17
2018-11-14T07:33:05.095Z,37.23
2018-11-14T07:35:33.385Z,36.40
2018-11-14T07:39:07.706Z,38.47
2018-11-14T07:41:38.326Z,42.27
2018-11-14T07:44:06.534Z,41.70
2018-11-14T07:46:35.155Z,40.33
2018-11-14T07:49:03.691Z,43.60
2018-11-14T07:51:31.998Z,47.80
2018-11-14T07:54:00.184Z,47.40
2018-11-14T07:56:28.672Z,40.17
2018-11-14T07:58:57.091Z,39.93
2018-11-14T08:01:25.129Z,39.90
2018-11-14T08:03:53.422Z,40.53
2018-11-14T08:06:21.727Z,42.87
2018-11-14T08:08:49.936Z,41.93
2018-11-14T08:11:18.291Z,41.47
2018-11-14T08:13:47.687Z,42.03
2018-11-14T08:16:15.850Z,39.60
2018-11-14T08:18:44.321Z,36.73
2018-11-14T08:21:12.618Z,38.90
2018-11-14T08:23:41.100Z,40.43
2018-11-14T08:26:09.603Z,39.97
2018-11-14T08:28:38.011Z,38.33
2018-11-14T08:31:06.388Z,38.37
2018-11-14T08:33:34.800Z,39.50
2018-11-14T08:36:03.096Z,36.60
2018-11-14T08:38:31.425Z,35.67
2018-11-14T08:40:59.914Z,34.03
2018-11-14T08:43:27.865Z,34.73
2018-11-14T08:45:56.362Z,37.30
2018-11-14T08:48:24.622Z,37.57
2018-11-14T08:50:53.071Z,40.00
2018-11-14T08:53:21.385Z,42.07
2018-11-14T08:55:49.890Z,39.67
2018-11-14T08:58:18.110Z,39.63
2018-11-14T09:00:46.220Z,38.87
2018-11-14T09:03:14.810Z,39.77
2018-11-14T09:05:43.191Z,39.87
2018-11-14T09:08:11.459Z,36.73
2018-11-14T09:10:39.754Z,36.60
2018-11-14T09:13:13.053Z,36.33
2018-11-14T09:15:41.303Z,35.77
2018-11-14T09:18:09.472Z,38.37
2018-11-14T09:20:37.974Z,37.07
2018-11-14T09:23:06.384Z,36.53
2018-11-14T09:25:34.316Z,37.37
2018-11-14T09:28:02.443Z,34.50
2018-11-14T09:30:30.510Z,37.10
2018-11-14T09:32:59.012Z,32.50
2018-11-14T09:35:27.734Z,32.83
2018-11-14T09:37:56.862Z,32.20
2018-11-14T09:40:26.101Z,30.23
2018-11-14T09:42:54.307Z,29.50
2018-11-14T09:45:24.178Z,29.70
2018-11-14T09:47:52.686Z,29.33
2018-11-14T09:50:22.386Z,28.77
2018-11-14T09:52:58.630Z,29.33
2018-11-14T09:55:26.934Z,30.33
2018-11-14T09:57:55.397Z,28.33
2018-11-14T10:00:27.669Z,30.90
2018-11-14T10:02:58.386Z,30.57
2018-11-14T10:05:26.649Z,32.03
2018-11-14T10:07:55.145Z,27.43
2018-11-14T10:10:23.621Z,29.07
2018-11-14T10:12:51.823Z,29.90
2018-11-14T10:15:21.385Z,28.23
2018-11-14T10:17:49.665Z,26.37
2018-11-14T10:20:19.115Z,29.03
2018-11-14T10:22:47.195Z,28.27
2018-11-14T10:25:16.000Z,27.77
2018-11-14T10:27:44.956Z,27.40
2018-11-14T10:30:16.918Z,30.37
2018-11-14T10:32:46.127Z,36.07
2018-11-14T10:35:14.475Z,33.27
2018-11-14T10:37:43.155Z,33.37
2018-11-14T10:40:13.472Z,32.97
2018-11-14T10:42:41.910Z,31.33
2018-11-14T10:45:11.362Z,32.03
2018-11-14T10:47:39.348Z,31.67
2018-11-14T10:50:09.326Z,29.83
2018-11-14T10:52:37.536Z,33.50
2018-11-14T10:55:06.207Z,33.00
2018-11-14T10:57:34.339Z,31.97
2018-11-14T11:00:02.120Z,31.23
2018-11-14T11:02:35.314Z,33.90
2018-11-14T11:05:09.202Z,33.77
2018-11-14T11:07:42.943Z,33.20
2018-11-14T11:10:16.816Z,32.73
2018-11-14T11:12:50.336Z,32.70
2018-11-14T11:16:25.939Z,32.90
2018-11-14T11:18:54.262Z,30.87
2018-11-14T11:21:22.164Z,32.47
2018-11-14T11:23:50.447Z,33.27
2018-11-14T11:26:18.808Z,33.23
2018-11-14T11:28:46.984Z,32.87
2018-11-14T11:31:15.504Z,31.90
2018-11-14T11:33:43.783Z,33.33
2018-11-14T11:36:12.024Z,31.37
2018-11-14T11:38:40.119Z,31.83
2018-11-14T11:41:08.578Z,31.27
2018-11-14T11:43:36.838Z,33.77
2018-11-14T11:46:05.271Z,34.13
2018-11-14T11:48:33.158Z,33.17
2018-11-14T11:51:00.959Z,33.60
2018-11-14T11:53:28.614Z,32.87
2018-11-14T11:55:56.399Z,29.37
2018-11-14T11:58:24.183Z,25.57
2018-11-14T12:00:52.000Z,25.10
2018-11-14T12:03:19.696Z,25.60
2018-11-14T12:05:47.426Z,27.40
2018-11-14T12:08:15.187Z,27.63
2018-11-14T12:10:43.054Z,28.03
2018-11-14T12:13:10.785Z,28.63
2018-11-14T12:15:38.563Z,28.40
2018-11-14T12:18:06.729Z,29.50
2018-11-14T12:20:34.440Z,27.57
2018-11-14T12:23:02.211Z,28.43
2018-11-14T12:25:29.908Z,25.83
2018-11-14T12:27:57.681Z,29.07
2018-11-14T12:30:25.568Z,29.17
2018-11-14T12:32:53.344Z,27.30
2018-11-14T12:35:21.127Z,30.60
2018-11-14T12:37:48.931Z,26.77
2018-11-14T12:40:16.611Z,26.17
2018-11-14T12:42:44.428Z,26.17
2018-11-14T12:45:13.664Z,25.00
2018-11-14T12:47:41.480Z,25.33
2018-11-14T12:50:10.346Z,28.53
2018-11-14T12:52:38.301Z,26.27
2018-11-14T12:55:07.842Z,26.50
2018-11-14T12:57:35.527Z,24.97
2018-11-14T13:00:03.571Z,26.87
2018-11-14T13:02:31.264Z,25.27
2018-11-14T13:04:59.151Z,25.80
2018-11-14T13:07:32.508Z,28.20
2018-11-14T13:10:00.356Z,25.90
2018-11-14T13:12:28.187Z,28.17
2018-11-14T13:14:56.029Z,27.77
2018-11-14T13:17:23.886Z,26.87
2018-11-14T13:19:51.710Z,26.57
2018-11-14T13:22:19.564Z,26.70
2018-11-14T13:24:47.667Z,26.10
2018-11-14T13:27:15.507Z,24.83
2018-11-14T13:29:43.356Z,26.67
2018-11-14T13:32:11.200Z,24.30
2018-11-14T13:34:39.026Z,23.33
2018-11-14T13:37:06.899Z,23.13
2018-11-14T13:39:34.722Z,24.53
2018-11-14T13:42:02.544Z,25.87
2018-11-14T13:44:30.424Z,25.37
2018-11-14T13:46:58.282Z,25.30
2018-11-14T13:49:26.305Z,27.83
2018-11-14T13:51:54.003Z,25.97
2018-11-14T13:54:21.842Z,25.27
2018-11-14T13:56:49.669Z,26.13
2018-11-14T13:59:17.584Z,27.93
2018-11-14T14:01:45.399Z,27.63
2018-11-14T14:04:13.214Z,25.80
2018-11-14T14:06:41.063Z,27.20
2018-11-14T14:09:10.541Z,27.90
2018-11-14T14:11:38.376Z,27.50
2018-11-14T14:14:12.447Z,28.00
2018-11-14T14:16:41.158Z,28.30
2018-11-14T14:19:09.208Z,29.23
2018-11-14T14:21:37.307Z,29.23
2018-11-14T14:24:05.483Z,29.97
2018-11-14T14:26:33.350Z,30.53
2018-11-14T14:29:01.210Z,34.40
2018-11-14T14:31:29.481Z,31.50
2018-11-14T14:33:57.327Z,35.40
2018-11-14T14:36:25.179Z,31.80
2018-11-14T14:38:53.010Z,31.53
2018-11-14T14:41:20.878Z,33.00
2018-11-14T14:43:49.082Z,33.90
2018-11-14T14:46:17.422Z,35.70
2018-11-14T14:48:45.775Z,38.03
2018-11-14T14:51:14.225Z,35.43
2018-11-14T14:53:42.512Z,212.03
2018-11-14T14:56:10.808Z,55.00
2018-11-14T14:58:39.256Z,37.60
2018-11-14T15:01:07.505Z,39.97
2018-11-14T15:03:36.078Z,47.77
2018-11-14T15:06:04.924Z,52.83
2018-11-14T15:08:33.180Z,44.40
2018-11-14T15:11:01.359Z,49.70
2018-11-14T15:13:29.923Z,45.53
2018-11-14T15:15:58.380Z,42.97
2018-11-14T15:18:26.667Z,38.60
2018-11-14T15:20:55.175Z,31.27
2018-11-14T15:23:23.459Z,35.97
2018-11-14T15:25:51.883Z,39.20
2018-11-14T15:28:20.281Z,36.80
2018-11-14T15:30:48.691Z,41.10
2018-11-14T15:33:16.864Z,42.63
2018-11-14T15:35:45.443Z,48.83
2018-11-14T15:38:13.896Z,50.30
2018-11-14T15:40:42.191Z,52.17
2018-11-14T15:43:10.684Z,44.27
2018-11-14T15:45:39.752Z,47.13
2018-11-14T15:48:07.948Z,45.55
2018-11-14T15:50:35.828Z,41.90
2018-11-14T15:53:03.938Z,51.23
2018-11-14T15:55:31.756Z,47.53
2018-11-14T15:57:59.629Z,44.53
2018-11-14T16:00:28.638Z,38.07
2018-11-14T16:02:56.588Z,50.00
2018-11-14T16:05:25.656Z,54.83
2018-11-14T16:07:54.691Z,64.57
2018-11-14T16:10:23.484Z,47.73
2018-11-14T16:12:51.345Z,38.47
2018-11-14T16:15:20.674Z,44.93
2018-11-14T16:17:48.533Z,39.30
2018-11-14T16:20:17.791Z,47.50
2018-11-14T16:22:45.615Z,41.27
2018-11-14T16:25:15.595Z,38.87
2018-11-14T16:27:44.315Z,47.50
2018-11-14T16:30:15.222Z,55.10
2018-11-14T16:32:44.072Z,49.00
2018-11-14T16:35:12.201Z,54.57
2018-11-14T16:37:40.455Z,54.37
2018-11-14T16:40:10.932Z,53.03
2018-11-14T16:42:39.202Z,58.40
2018-11-14T16:45:07.615Z,54.70
2018-11-14T16:47:35.601Z,54.97
2018-11-14T16:50:03.483Z,42.13
2018-11-14T16:52:31.406Z,57.23
2018-11-14T16:54:59.266Z,55.97
2018-11-14T16:57:27.498Z,47.10
2018-11-14T16:59:55.324Z,51.43
2018-11-14T17:02:23.227Z,55.20
2018-11-14T17:04:51.730Z,57.63
2018-11-14T17:07:22.284Z,46.57
2018-11-14T17:09:52.084Z,42.53
2018-11-14T17:12:21.029Z,54.03
2018-11-14T17:14:50.305Z,46.93
2018-11-14T17:17:19.696Z,65.97
2018-11-14T17:19:48.420Z,58.63
2018-11-14T17:22:17.778Z,55.57
2018-11-14T17:24:46.807Z,51.70
2018-11-14T17:27:15.782Z,39.73
2018-11-14T17:29:45.389Z,42.50
2018-11-14T17:32:13.706Z,46.90
2018-11-14T17:34:41.590Z,43.37
2018-11-14T17:37:11.583Z,46.37
2018-11-14T17:39:41.434Z,46.10
2018-11-14T17:42:10.884Z,42.20
2018-11-14T17:44:44.401Z,41.23
2018-11-14T17:47:14.703Z,71.27
2018-11-14T17:52:19.696Z,41.87
2018-11-14T17:54:50.843Z,60.10
2018-11-14T17:57:20.310Z,51.67
2018-11-14T17:59:54.168Z,54.50
2018-11-14T18:02:26.004Z,60.30
2018-11-14T18:04:56.725Z,52.90
2018-11-14T18:07:31.768Z,43.60
2018-11-14T18:10:03.726Z,46.20
2018-11-14T18:12:34.448Z,57.60
2018-11-14T18:15:08.650Z,38.43
2018-11-14T18:17:38.179Z,44.67
2018-11-14T18:20:07.797Z,48.73
2018-11-14T18:22:35.615Z,43.40
2018-11-14T18:25:03.519Z,44.30
2018-11-14T18:27:31.613Z,44.23
2018-11-14T18:30:04.092Z,44.93
2018-11-14T18:32:32.555Z,49.47
2018-11-14T18:35:00.307Z,40.10
2018-11-14T18:37:28.223Z,40.23
2018-11-14T18:39:56.000Z,37.43
2018-11-14T18:42:24.134Z,38.27
2018-11-14T18:44:51.965Z,43.50
2018-11-14T18:47:20.255Z,42.63
2018-11-14T18:49:48.029Z,44.40
2018-11-14T18:52:16.454Z,69.37
2018-11-14T18:54:44.731Z,49.10
2018-11-14T18:57:15.807Z,42.83
2018-11-14T18:59:47.286Z,42.20
2018-11-14T19:02:18.237Z,41.17
2018-11-14T19:04:46.445Z,43.07
2018-11-14T19:07:14.163Z,50.43
2018-11-14T19:09:42.205Z,50.90
2018-11-14T19:12:10.099Z,44.20
2018-11-14T19:14:37.936Z,42.57
2018-11-14T19:17:05.887Z,42.70
2018-11-14T19:19:33.756Z,45.13
2018-11-14T19:22:01.713Z,46.87
2018-11-14T19:24:29.596Z,45.33
2018-11-14T19:26:57.342Z,39.13
2018-11-14T19:29:25.115Z,49.33
2018-11-14T19:31:52.859Z,73.53
2018-11-14T19:34:20.587Z,38.60
2018-11-14T19:36:48.347Z,45.63
2018-11-14T19:39:16.111Z,54.60
2018-11-14T19:41:43.854Z,52.63
2018-11-14T19:44:12.137Z,50.77
2018-11-14T19:46:39.890Z,51.27
2018-11-14T19:49:07.618Z,53.20
2018-11-14T19:51:35.402Z,59.53
2018-11-14T19:54:03.188Z,55.40
2018-11-14T19:56:30.960Z,63.20
2018-11-14T19:58:58.735Z,84.43
2018-11-14T20:01:26.463Z,79.57
2018-11-14T20:03:54.225Z,76.43
2018-11-14T20:06:21.980Z,77.90
2018-11-14T20:08:50.333Z,71.27
2018-11-14T20:11:18.540Z,72.23
2018-11-14T20:13:46.933Z,73.30
2018-11-14T20:16:14.996Z,72.00
2018-11-14T20:18:43.460Z,63.50
2018-11-14T20:21:11.800Z,68.43
2018-11-14T20:23:40.319Z,71.10
2018-11-14T20:26:08.511Z,68.57
2018-11-14T20:28:36.665Z,63.80
2018-11-14T20:31:05.071Z,57.17
2018-11-14T20:33:33.356Z,57.67
2018-11-14T20:36:01.903Z,56.30
2018-11-14T20:38:30.066Z,60.13
2018-11-14T20:40:58.576Z,61.70
2018-11-14T20:43:26.661Z,59.97
2018-11-14T20:45:55.103Z,56.87
2018-11-14T20:48:23.399Z,55.00
2018-11-14T20:50:51.908Z,59.00
2018-11-14T20:53:20.157Z,59.27
2018-11-14T20:55:48.673Z,61.00
2018-11-14T20:58:16.955Z,58.27
2018-11-14T21:00:45.138Z,54.17
2018-11-14T21:03:13.318Z,53.27
2018-11-14T21:05:41.601Z,51.43
2018-11-14T21:08:09.968Z,53.40
2018-11-14T21:10:38.059Z,51.47
2018-11-14T21:13:06.403Z,50.13
2018-11-14T21:15:36.040Z,49.73
2018-11-14T21:18:04.429Z,46.17
2018-11-14T21:20:32.647Z,47.43
2018-11-14T21:23:01.178Z,46.43
2018-11-14T21:25:29.334Z,49.10
2018-11-14T21:27:57.855Z,50.27
2018-11-14T21:30:27.597Z,51.83
2018-11-14T21:32:55.867Z,49.13
2018-11-14T21:35:33.461Z,48.30
2018-11-14T21:38:03.245Z,49.53
2018-11-14T21:40:31.524Z,50.20
2018-11-14T21:43:00.067Z,47.77
2018-11-14T21:45:28.801Z,48.43
2018-11-14T21:48:02.729Z,51.70
2018-11-14T21:50:31.215Z,50.17
2018-11-14T21:52:59.000Z,47.70
2018-11-14T21:55:26.781Z,49.43
2018-11-14T21:57:54.535Z,47.47
2018-11-14T22:00:24.659Z,48.70
2018-11-14T22:02:53.687Z,48.03
2018-11-14T22:05:21.478Z,48.47
2018-11-14T22:07:49.310Z,47.43
2018-11-14T22:10:18.424Z,47.43
2018-11-14T22:12:46.778Z,49.07
2018-11-14T22:15:15.675Z,48.17
2018-11-14T22:17:43.576Z,46.33
2018-11-14T22:20:13.749Z,45.57
2018-11-14T22:22:42.231Z,46.07
2018-11-14T22:25:10.728Z,44.20
2018-11-14T22:27:38.530Z,43.20
2018-11-14T22:30:09.428Z,46.47
2018-11-14T22:32:37.194Z,45.27
2018-11-14T22:35:05.388Z,46.67
2018-11-14T22:37:33.175Z,49.13
2018-11-14T22:40:00.966Z,49.33
2018-11-14T22:42:28.731Z,52.67
2018-11-14T22:44:56.541Z,50.23
2018-11-14T22:47:25.068Z,52.37
2018-11-14T22:49:53.232Z,50.83
2018-11-14T22:52:21.330Z,50.47
2018-11-14T22:54:49.638Z,50.97
2018-11-14T22:57:18.108Z,51.03
2018-11-14T22:59:46.396Z,51.23
2018-11-14T23:02:14.935Z,61.10
2018-11-14T23:04:43.115Z,49.80
2018-11-14T23:07:11.371Z,50.63
2018-11-14T23:09:39.765Z,51.00
2018-11-14T23:12:07.744Z,52.10
2018-11-14T23:14:36.211Z,52.77
2018-11-14T23:17:04.676Z,49.80
2018-11-14T23:19:32.958Z,56.43
2018-11-14T23:22:01.020Z,49.07
2018-11-14T23:24:29.132Z,48.53
2018-11-14T23:26:57.408Z,46.07
2018-11-14T23:29:25.699Z,48.20
2018-11-14T23:31:54.003Z,47.23
2018-11-14T23:34:22.236Z,48.80
2018-11-14T23:36:50.479Z,50.33
2018-11-14T23:39:18.851Z,48.73
2018-11-14T23:41:47.286Z,49.37
2018-11-14T23:44:15.544Z,50.50
2018-11-14T23:46:43.820Z,48.00
2018-11-14T23:49:12.320Z,51.53
2018-11-14T23:51:40.776Z,50.37
2018-11-14T23:54:09.108Z,53.07
2018-11-14T23:56:37.336Z,52.53
2018-11-14T23:59:05.647Z,52.90
